createdAt,value
2023-01-09T00:00:18.324Z,29.29
2023-01-09T00:01:44.480Z,28.65
2023-01-09T00:02:46.700Z,28.24
2023-01-09T00:03:48.947Z,28.05
2023-01-09T00:04:50.762Z,27.88
2023-01-09T00:05:52.792Z,28.28
2023-01-09T00:06:54.724Z,28.71
2023-01-09T00:07:56.943Z,28.34
2023-01-09T00:08:59.408Z,26.59
2023-01-09T00:10:01.452Z,28.32
2023-01-09T00:11:03.913Z,27.75
2023-01-09T00:12:06.154Z,26.59
2023-01-09T00:13:12.160Z,26.63
2023-01-09T00:14:17.256Z,26.96
2023-01-09T00:15:19.264Z,26.54
2023-01-09T00:16:21.293Z,26.26
2023-01-09T00:17:23.353Z,26.41
2023-01-09T00:18:25.690Z,24.96
2023-01-09T00:19:27.594Z,25.66
2023-01-09T00:20:29.663Z,25.33
2023-01-09T00:21:31.587Z,26.45
2023-01-09T00:22:33.726Z,24.93
2023-01-09T00:23:37.093Z,24.90
2023-01-09T00:24:39.015Z,25.56
2023-01-09T00:25:42.496Z,26.62
2023-01-09T00:26:45.163Z,25.43
2023-01-09T00:27:47.819Z,25.26
2023-01-09T00:28:51.825Z,25.69
2023-01-09T00:29:53.837Z,26.16
2023-01-09T00:30:57.540Z,24.96
2023-01-09T00:31:59.599Z,26.45
2023-01-09T00:33:01.469Z,25.65
2023-01-09T00:34:06.674Z,23.57
2023-01-09T00:35:15.584Z,24.36
2023-01-09T00:36:17.698Z,24.70
2023-01-09T00:37:19.518Z,25.12
2023-01-09T00:38:21.643Z,25.24
2023-01-09T00:39:23.858Z,24.52
2023-01-09T00:40:25.861Z,25.09
2023-01-09T00:41:36.255Z,24.26
2023-01-09T00:42:38.969Z,24.83
2023-01-09T00:43:50.194Z,24.66
2023-01-09T00:45:02.386Z,24.63
2023-01-09T00:46:07.501Z,23.93
2023-01-09T00:47:19.934Z,23.87
2023-01-09T00:48:26.617Z,22.93
2023-01-09T00:49:36.490Z,23.43
2023-01-09T00:50:38.697Z,24.75
2023-01-09T00:51:42.338Z,24.45
2023-01-09T00:52:47.131Z,24.00
2023-01-09T00:53:51.115Z,24.72
2023-01-09T00:54:53.090Z,24.33
2023-01-09T00:55:59.350Z,24.66
2023-01-09T00:57:01.609Z,24.75
2023-01-09T00:58:03.959Z,24.33
2023-01-09T00:59:07.935Z,24.11
2023-01-09T01:00:10.943Z,24.21
2023-01-09T01:01:13.295Z,23.97
2023-01-09T01:02:15.648Z,23.92
2023-01-09T01:03:17.769Z,23.12
2023-01-09T01:04:38.170Z,24.08
2023-01-09T01:05:59.277Z,24.18
2023-01-09T01:07:19.891Z,24.71
2023-01-09T01:08:21.823Z,24.67
2023-01-09T01:09:23.993Z,24.03
2023-01-09T01:10:27.514Z,23.58
2023-01-09T01:11:32.622Z,23.56
2023-01-09T01:12:34.791Z,23.35
2023-01-09T01:13:39.384Z,23.39
2023-01-09T01:14:41.805Z,23.71
2023-01-09T01:15:46.063Z,23.71
2023-01-09T01:16:47.967Z,23.29
2023-01-09T01:17:50.321Z,22.75
2023-01-09T01:18:52.554Z,23.90
2023-01-09T01:19:54.366Z,23.56
2023-01-09T01:20:56.200Z,24.02
2023-01-09T01:21:58.132Z,23.96
2023-01-09T01:23:00.246Z,24.58
2023-01-09T01:24:02.092Z,23.83
2023-01-09T01:25:06.025Z,23.61
2023-01-09T01:26:14.071Z,23.28
2023-01-09T01:27:15.960Z,23.30
2023-01-09T01:28:17.993Z,22.98
2023-01-09T01:29:19.945Z,23.03
2023-01-09T01:30:22.024Z,23.47
2023-01-09T01:31:24.050Z,22.77
2023-01-09T01:32:28.430Z,22.72
2023-01-09T01:33:31.235Z,22.11
2023-01-09T01:34:33.361Z,22.64
2023-01-09T01:35:36.141Z,23.44
2023-01-09T01:36:38.039Z,24.02
2023-01-09T01:37:40.849Z,23.43
2023-01-09T01:38:43.695Z,23.60
2023-01-09T01:39:45.691Z,23.13
2023-01-09T01:40:53.731Z,21.80
2023-01-09T01:41:55.653Z,22.59
2023-01-09T01:42:58.798Z,23.84
2023-01-09T01:44:07.591Z,22.87
2023-01-09T01:45:14.301Z,23.40
2023-01-09T01:46:18.002Z,22.61
2023-01-09T01:47:28.378Z,23.06
2023-01-09T01:48:32.352Z,22.88
2023-01-09T01:49:34.339Z,23.23
2023-01-09T01:51:04.550Z,23.24
2023-01-09T01:52:07.435Z,22.92
2023-01-09T01:53:38.817Z,22.87
2023-01-09T01:54:41.832Z,22.32
2023-01-09T01:56:10.034Z,22.31
2023-01-09T01:57:12.643Z,22.19
2023-01-09T01:58:16.256Z,23.36
2023-01-09T01:59:28.489Z,23.12
2023-01-09T02:00:37.129Z,22.30
2023-01-09T02:01:44.601Z,22.98
2023-01-09T02:02:46.619Z,23.37
2023-01-09T02:03:52.478Z,22.87
2023-01-09T02:04:57.449Z,22.81
2023-01-09T02:05:59.919Z,23.00
2023-01-09T02:07:08.832Z,22.40
2023-01-09T02:08:11.551Z,22.28
2023-01-09T02:09:17.977Z,22.77
2023-01-09T02:10:23.474Z,21.78
2023-01-09T02:11:25.418Z,21.68
2023-01-09T02:12:28.438Z,22.33
2023-01-09T02:13:32.734Z,22.12
2023-01-09T02:14:34.898Z,22.35
2023-01-09T02:16:05.206Z,22.63
2023-01-09T02:17:41.735Z,22.31
2023-01-09T02:19:06.919Z,22.83
2023-01-09T02:20:43.962Z,22.32
2023-01-09T02:22:27.444Z,22.63
2023-01-09T02:23:54.727Z,22.05
2023-01-09T02:25:31.544Z,22.45
2023-01-09T02:26:45.997Z,23.11
2023-01-09T02:27:47.855Z,23.23
2023-01-09T02:29:47.370Z,22.97
2023-01-09T02:31:10.135Z,22.99
2023-01-09T02:33:08.204Z,22.64
2023-01-09T02:34:27.604Z,23.56
2023-01-09T02:35:59.058Z,21.72
2023-01-09T02:37:25.928Z,22.10
2023-01-09T02:38:47.177Z,22.63
2023-01-09T02:40:19.409Z,22.02
2023-01-09T02:41:36.333Z,22.49
2023-01-09T02:42:42.026Z,23.07
2023-01-09T02:43:44.480Z,22.84
2023-01-09T02:44:47.072Z,22.41
2023-01-09T02:45:48.933Z,22.17
2023-01-09T02:47:08.580Z,22.58
2023-01-09T02:48:11.392Z,22.70
2023-01-09T02:49:17.025Z,21.49
2023-01-09T02:50:25.456Z,21.96
2023-01-09T02:51:43.528Z,21.98
2023-01-09T02:53:00.501Z,22.11
2023-01-09T02:54:21.885Z,22.29
2023-01-09T02:55:38.870Z,21.47
2023-01-09T02:56:49.687Z,21.87
2023-01-09T02:58:19.282Z,22.70
2023-01-09T02:59:36.823Z,22.18
2023-01-09T03:00:45.215Z,22.37
2023-01-09T03:02:09.587Z,21.98
2023-01-09T03:03:27.590Z,22.42
2023-01-09T03:04:52.893Z,21.46
2023-01-09T03:06:34.566Z,22.39
2023-01-09T03:07:55.998Z,22.76
2023-01-09T03:09:06.980Z,22.29
2023-01-09T03:10:23.471Z,22.67
2023-01-09T03:11:30.760Z,22.23
2023-01-09T03:12:33.784Z,23.02
2023-01-09T03:13:56.652Z,23.28
2023-01-09T03:15:01.978Z,22.04
2023-01-09T03:16:09.673Z,21.64
2023-01-09T03:17:16.744Z,22.38
2023-01-09T03:18:24.664Z,20.97
2023-01-09T03:19:32.169Z,21.94
2023-01-09T03:20:35.424Z,21.48
2023-01-09T03:21:39.125Z,21.43
2023-01-09T03:22:53.282Z,21.32
2023-01-09T03:23:58.048Z,22.32
2023-01-09T03:24:59.981Z,21.89
2023-01-09T03:26:01.828Z,22.13
2023-01-09T03:27:03.746Z,22.92
2023-01-09T03:28:22.428Z,22.01
2023-01-09T03:29:24.292Z,22.22
2023-01-09T03:30:28.864Z,22.37
2023-01-09T03:31:30.841Z,22.57
2023-01-09T03:32:32.850Z,22.79
2023-01-09T03:33:34.647Z,22.09
2023-01-09T03:34:36.423Z,22.76
2023-01-09T03:35:38.587Z,21.31
2023-01-09T03:36:40.786Z,22.44
2023-01-09T03:37:42.627Z,21.94
2023-01-09T03:38:44.957Z,22.50
2023-01-09T03:39:47.360Z,21.76
2023-01-09T03:40:49.391Z,22.96
2023-01-09T03:41:51.316Z,23.90
2023-01-09T03:42:53.193Z,22.96
2023-01-09T03:43:55.036Z,23.28
2023-01-09T03:44:57.002Z,23.00
2023-01-09T03:45:59.737Z,22.21
2023-01-09T03:47:01.807Z,22.23
2023-01-09T03:48:04.226Z,21.89
2023-01-09T03:49:06.163Z,22.35
2023-01-09T03:50:08.957Z,23.69
2023-01-09T03:51:10.903Z,22.96
2023-01-09T03:52:14.101Z,22.10
2023-01-09T03:53:16.055Z,22.13
2023-01-09T03:54:17.901Z,21.55
2023-01-09T03:55:19.793Z,22.28
2023-01-09T03:56:21.988Z,21.79
2023-01-09T03:57:26.815Z,22.93
2023-01-09T03:58:28.805Z,22.03
2023-01-09T03:59:30.636Z,23.43
2023-01-09T04:00:32.385Z,23.52
2023-01-09T04:01:34.321Z,22.96
2023-01-09T04:02:36.457Z,22.70
2023-01-09T04:03:39.812Z,22.63
2023-01-09T04:04:41.903Z,23.31
2023-01-09T04:05:46.319Z,23.62
2023-01-09T04:06:48.629Z,24.23
2023-01-09T04:07:50.489Z,23.23
2023-01-09T04:08:52.412Z,23.35
2023-01-09T04:09:54.291Z,23.10
2023-01-09T04:10:56.199Z,22.13
2023-01-09T04:11:58.097Z,22.91
2023-01-09T04:13:00.195Z,24.08
2023-01-09T04:14:02.106Z,23.68
2023-01-09T04:15:04.525Z,22.60
2023-01-09T04:16:06.733Z,23.15
2023-01-09T04:17:09.054Z,23.39
2023-01-09T04:18:11.067Z,22.74
2023-01-09T04:19:13.110Z,22.14
2023-01-09T04:20:15.576Z,22.62
2023-01-09T04:21:17.613Z,22.90
2023-01-09T04:22:19.461Z,24.05
2023-01-09T04:23:21.327Z,24.53
2023-01-09T04:24:23.192Z,22.54
2023-01-09T04:25:26.210Z,23.24
2023-01-09T04:26:28.093Z,22.81
2023-01-09T04:27:30.568Z,22.92
2023-01-09T04:28:32.660Z,22.00
2023-01-09T04:29:34.537Z,21.43
2023-01-09T04:30:36.335Z,22.40
2023-01-09T04:31:38.186Z,22.60
2023-01-09T04:32:40.639Z,22.26
2023-01-09T04:33:42.593Z,23.37
2023-01-09T04:34:44.523Z,23.36
2023-01-09T04:35:46.746Z,23.51
2023-01-09T04:36:48.625Z,23.97
2023-01-09T04:37:50.756Z,23.41
2023-01-09T04:38:52.790Z,22.63
2023-01-09T04:39:57.294Z,23.37
2023-01-09T04:40:59.287Z,23.15
2023-01-09T04:42:01.496Z,22.02
2023-01-09T04:43:03.561Z,22.40
2023-01-09T04:44:05.679Z,21.93
2023-01-09T04:45:10.917Z,22.85
2023-01-09T04:46:12.750Z,23.74
2023-01-09T04:47:14.616Z,23.68
2023-01-09T04:48:17.029Z,24.33
2023-01-09T04:49:20.728Z,23.79
2023-01-09T04:50:22.826Z,22.98
2023-01-09T04:51:24.780Z,23.49
2023-01-09T04:52:27.059Z,22.23
2023-01-09T04:53:29.094Z,22.80
2023-01-09T04:54:31.007Z,23.02
2023-01-09T04:55:33.504Z,22.71
2023-01-09T04:56:36.922Z,23.19
2023-01-09T04:57:38.815Z,22.74
2023-01-09T04:58:40.890Z,21.99
2023-01-09T04:59:42.817Z,23.23
2023-01-09T05:00:45.123Z,22.41
2023-01-09T05:01:52.662Z,23.15
2023-01-09T05:02:54.672Z,23.38
2023-01-09T05:03:56.976Z,23.14
2023-01-09T05:04:58.834Z,23.96
2023-01-09T05:06:00.716Z,23.53
2023-01-09T05:07:02.717Z,22.97
2023-01-09T05:08:06.053Z,22.75
2023-01-09T05:09:08.097Z,22.77
2023-01-09T05:10:12.879Z,21.66
2023-01-09T05:11:15.163Z,23.43
2023-01-09T05:12:17.153Z,22.85
2023-01-09T05:13:19.104Z,22.86
2023-01-09T05:14:21.262Z,24.30
2023-01-09T05:15:23.190Z,24.36
2023-01-09T05:16:25.008Z,23.53
2023-01-09T05:17:26.952Z,23.30
2023-01-09T05:18:28.790Z,24.08
2023-01-09T05:19:30.805Z,24.07
2023-01-09T05:20:32.829Z,24.10
2023-01-09T05:21:34.780Z,24.01
2023-01-09T05:22:36.842Z,23.02
2023-01-09T05:23:38.880Z,23.80
2023-01-09T05:24:41.657Z,22.80
2023-01-09T05:25:43.933Z,23.45
2023-01-09T05:26:45.838Z,23.97
2023-01-09T05:27:47.846Z,23.86
2023-01-09T05:28:54.455Z,23.90
2023-01-09T05:29:56.440Z,23.42
2023-01-09T05:30:58.330Z,23.86
2023-01-09T05:32:00.197Z,23.97
2023-01-09T05:33:02.065Z,24.28
2023-01-09T05:34:04.053Z,23.30
2023-01-09T05:35:06.538Z,23.54
2023-01-09T05:36:09.248Z,23.05
2023-01-09T05:37:11.110Z,23.13
2023-01-09T05:38:13.111Z,22.55
2023-01-09T05:39:15.592Z,22.58
2023-01-09T05:40:18.021Z,23.47
2023-01-09T05:41:20.113Z,24.06
2023-01-09T05:42:22.046Z,23.38
2023-01-09T05:43:23.904Z,24.75
2023-01-09T05:44:25.787Z,25.33
2023-01-09T05:45:27.724Z,23.59
2023-01-09T05:46:29.765Z,24.19
2023-01-09T05:47:31.795Z,24.39
2023-01-09T05:48:33.860Z,25.51
2023-01-09T05:49:35.779Z,25.22
2023-01-09T05:50:37.665Z,25.22
2023-01-09T05:51:39.842Z,24.00
2023-01-09T05:52:42.010Z,24.03
2023-01-09T05:53:44.084Z,25.73
2023-01-09T05:54:45.924Z,24.20
2023-01-09T05:55:48.055Z,24.51
2023-01-09T05:56:49.999Z,24.75
2023-01-09T05:57:51.835Z,24.50
2023-01-09T05:58:53.692Z,26.21
2023-01-09T05:59:55.580Z,24.96
2023-01-09T06:00:59.130Z,24.84
2023-01-09T06:02:01.962Z,25.06
2023-01-09T06:03:03.930Z,24.39
2023-01-09T06:04:05.991Z,24.44
2023-01-09T06:05:08.910Z,25.05
2023-01-09T06:06:10.850Z,24.65
2023-01-09T06:07:17.778Z,24.45
2023-01-09T06:08:21.467Z,25.33
2023-01-09T06:09:23.710Z,23.88
2023-01-09T06:10:25.717Z,24.15
2023-01-09T06:11:27.635Z,24.90
2023-01-09T06:12:30.065Z,25.44
2023-01-09T06:13:32.079Z,25.70
2023-01-09T06:14:34.616Z,25.90
2023-01-09T06:15:36.482Z,24.95
2023-01-09T06:16:38.418Z,25.38
2023-01-09T06:17:40.783Z,24.95
2023-01-09T06:18:42.741Z,25.08
2023-01-09T06:19:44.904Z,24.79
2023-01-09T06:20:46.765Z,24.43
2023-01-09T06:21:49.000Z,24.45
2023-01-09T06:22:52.273Z,25.48
2023-01-09T06:23:54.057Z,26.57
2023-01-09T06:24:55.889Z,27.24
2023-01-09T06:25:57.815Z,27.20
2023-01-09T06:26:59.874Z,29.05
2023-01-09T06:28:02.029Z,28.98
2023-01-09T06:29:03.996Z,30.43
2023-01-09T06:30:06.715Z,32.34
2023-01-09T06:31:08.612Z,31.85
2023-01-09T06:32:10.426Z,31.34
2023-01-09T06:33:12.310Z,31.01
2023-01-09T06:34:14.115Z,31.71
2023-01-09T06:35:20.561Z,31.45
2023-01-09T06:36:22.894Z,29.75
2023-01-09T06:37:24.702Z,31.31
2023-01-09T06:38:26.595Z,31.61
2023-01-09T06:39:28.448Z,31.04
2023-01-09T06:40:30.263Z,28.72
2023-01-09T06:41:32.104Z,29.60
2023-01-09T06:42:33.915Z,28.20
2023-01-09T06:43:36.201Z,27.37
2023-01-09T06:44:37.985Z,27.39
2023-01-09T06:45:44.930Z,26.94
2023-01-09T06:46:46.771Z,25.99
2023-01-09T06:47:50.201Z,26.72
2023-01-09T06:48:52.430Z,25.68
2023-01-09T06:49:54.370Z,24.75
2023-01-09T06:50:56.294Z,27.01
2023-01-09T06:51:58.343Z,26.16
2023-01-09T06:53:00.280Z,25.15
2023-01-09T06:54:02.362Z,25.79
2023-01-09T06:55:04.863Z,26.10
2023-01-09T06:56:06.952Z,26.95
2023-01-09T06:57:08.990Z,26.28
2023-01-09T06:58:11.430Z,25.69
2023-01-09T06:59:13.984Z,25.69
2023-01-09T07:00:16.424Z,26.13
2023-01-09T07:01:18.544Z,25.66
2023-01-09T07:02:22.254Z,27.08
2023-01-09T07:03:24.188Z,25.91
2023-01-09T07:04:26.165Z,25.16
2023-01-09T07:05:27.950Z,25.82
2023-01-09T07:06:29.907Z,26.14
2023-01-09T07:07:31.945Z,27.03
2023-01-09T07:08:34.412Z,27.23
2023-01-09T07:09:36.270Z,26.10
2023-01-09T07:10:38.138Z,26.00
2023-01-09T07:11:40.963Z,25.96
2023-01-09T07:12:42.987Z,25.64
2023-01-09T07:13:44.882Z,26.11
2023-01-09T07:14:46.718Z,25.30
2023-01-09T07:15:50.431Z,25.98
2023-01-09T07:16:52.360Z,26.86
2023-01-09T07:17:54.924Z,26.27
2023-01-09T07:18:57.008Z,25.81
2023-01-09T07:20:00.281Z,25.86
2023-01-09T07:21:02.143Z,25.87
2023-01-09T07:22:03.993Z,26.14
2023-01-09T07:23:05.734Z,27.71
2023-01-09T07:24:07.648Z,28.28
2023-01-09T07:25:09.585Z,26.82
2023-01-09T07:26:11.484Z,26.72
2023-01-09T07:27:13.329Z,27.29
2023-01-09T07:28:15.263Z,27.66
2023-01-09T07:29:17.150Z,29.78
2023-01-09T07:30:19.172Z,30.38
2023-01-09T07:31:21.121Z,31.28
2023-01-09T07:32:22.996Z,30.02
2023-01-09T07:33:24.868Z,29.08
2023-01-09T07:34:26.794Z,28.84
2023-01-09T07:35:28.744Z,27.79
2023-01-09T07:36:30.647Z,26.86
2023-01-09T07:37:32.489Z,28.59
2023-01-09T07:38:36.009Z,28.39
2023-01-09T07:39:39.296Z,27.86
2023-01-09T07:40:41.311Z,27.71
2023-01-09T07:41:43.301Z,26.98
2023-01-09T07:42:45.241Z,27.25
2023-01-09T07:43:47.337Z,27.40
2023-01-09T07:44:49.284Z,27.62
2023-01-09T07:45:51.400Z,27.41
2023-01-09T07:46:53.279Z,27.99
2023-01-09T07:47:55.180Z,28.42
2023-01-09T07:48:56.970Z,29.88
2023-01-09T07:49:58.766Z,31.00
2023-01-09T07:51:00.704Z,31.75
2023-01-09T07:52:03.104Z,32.33
2023-01-09T07:53:04.932Z,30.23
2023-01-09T07:54:06.718Z,30.85
2023-01-09T07:55:09.589Z,30.92
2023-01-09T07:56:12.163Z,28.54
2023-01-09T07:57:14.202Z,28.74
2023-01-09T07:58:16.177Z,29.85
2023-01-09T07:59:18.019Z,30.35
2023-01-09T08:00:21.346Z,28.23
2023-01-09T08:01:23.545Z,27.85
2023-01-09T08:02:27.241Z,28.50
2023-01-09T08:03:29.899Z,28.51
2023-01-09T08:04:31.944Z,28.52
2023-01-09T08:05:34.265Z,29.69
2023-01-09T08:06:36.337Z,29.10
2023-01-09T08:07:38.861Z,30.59
2023-01-09T08:08:40.777Z,32.54
2023-01-09T08:09:42.906Z,35.14
2023-01-09T08:10:44.738Z,35.57
2023-01-09T08:11:46.519Z,32.88
2023-01-09T08:12:49.875Z,35.15
2023-01-09T08:13:52.108Z,33.82
2023-01-09T08:14:54.172Z,33.15
2023-01-09T08:15:56.042Z,29.41
2023-01-09T08:16:58.180Z,29.41
2023-01-09T08:18:00.006Z,29.42
2023-01-09T08:19:01.900Z,29.56
2023-01-09T08:20:03.980Z,29.16
2023-01-09T08:21:06.029Z,29.57
2023-01-09T08:22:07.777Z,28.30
2023-01-09T08:23:09.728Z,27.96
2023-01-09T08:24:11.540Z,27.99
2023-01-09T08:25:13.480Z,27.94
2023-01-09T08:26:15.279Z,28.17
2023-01-09T08:27:17.157Z,27.16
2023-01-09T08:28:19.229Z,27.21
2023-01-09T08:29:21.287Z,27.53
2023-01-09T08:30:23.171Z,30.23
2023-01-09T08:31:25.004Z,29.98
2023-01-09T08:32:26.989Z,29.53
2023-01-09T08:33:29.496Z,29.23
2023-01-09T08:34:32.354Z,28.53
2023-01-09T08:35:34.306Z,28.43
2023-01-09T08:36:36.228Z,28.65
2023-01-09T08:37:38.027Z,31.28
2023-01-09T08:38:40.174Z,32.96
2023-01-09T08:39:42.337Z,32.13
2023-01-09T08:40:47.585Z,33.59
2023-01-09T08:42:08.377Z,32.39
2023-01-09T08:43:29.057Z,31.94
2023-01-09T08:45:23.862Z,29.79
2023-01-09T08:46:44.894Z,28.73
2023-01-09T08:47:46.847Z,29.10
2023-01-09T08:48:48.909Z,28.99
2023-01-09T08:49:51.121Z,27.50
2023-01-09T08:50:54.410Z,27.09
2023-01-09T08:51:56.471Z,27.47
2023-01-09T08:52:58.315Z,28.15
2023-01-09T08:54:00.234Z,29.22
2023-01-09T08:55:02.032Z,28.18
2023-01-09T08:56:04.301Z,28.06
2023-01-09T08:57:09.231Z,27.84
2023-01-09T08:58:11.439Z,28.02
2023-01-09T08:59:13.567Z,28.16
2023-01-09T09:00:16.219Z,29.05
2023-01-09T09:01:18.227Z,27.88
2023-01-09T09:02:20.592Z,28.75
2023-01-09T09:03:22.900Z,27.30
2023-01-09T09:04:24.842Z,26.21
2023-01-09T09:05:29.058Z,26.96
2023-01-09T09:06:32.199Z,26.12
2023-01-09T09:07:34.269Z,27.20
2023-01-09T09:08:36.028Z,25.22
2023-01-09T09:09:37.911Z,26.30
2023-01-09T09:10:39.846Z,26.39
2023-01-09T09:11:42.269Z,25.69
2023-01-09T09:12:44.818Z,26.15
2023-01-09T09:13:47.483Z,26.28
2023-01-09T09:15:08.479Z,26.17
2023-01-09T09:16:10.437Z,25.22
2023-01-09T09:17:12.448Z,25.74
2023-01-09T09:18:14.379Z,24.84
2023-01-09T09:19:16.623Z,23.46
2023-01-09T09:20:18.561Z,23.51
2023-01-09T09:21:20.922Z,24.11
2023-01-09T09:22:22.997Z,23.59
2023-01-09T09:23:25.041Z,23.34
2023-01-09T09:24:27.204Z,23.92
2023-01-09T09:25:30.356Z,23.60
2023-01-09T09:26:33.010Z,23.27
2023-01-09T09:27:36.627Z,23.79
2023-01-09T09:28:39.082Z,24.05
2023-01-09T09:29:41.630Z,24.44
2023-01-09T09:30:43.455Z,25.15
2023-01-09T09:31:45.423Z,23.01
2023-01-09T09:32:47.789Z,24.41
2023-01-09T09:33:50.181Z,24.38
2023-01-09T09:34:52.381Z,23.54
2023-01-09T09:35:54.406Z,23.54
2023-01-09T09:36:56.316Z,22.82
2023-01-09T09:38:03.941Z,22.70
2023-01-09T09:39:07.700Z,22.31
2023-01-09T09:40:25.788Z,22.18
2023-01-09T09:41:55.664Z,22.60
2023-01-09T09:43:23.073Z,22.85
2023-01-09T09:45:07.112Z,23.97
2023-01-09T09:46:27.355Z,23.77
2023-01-09T09:47:48.030Z,24.22
2023-01-09T09:49:34.568Z,23.43
2023-01-09T09:51:08.755Z,21.59
2023-01-09T09:52:31.405Z,22.40
2023-01-09T09:53:43.216Z,21.93
2023-01-09T09:54:51.442Z,22.67
2023-01-09T09:55:54.771Z,23.08
2023-01-09T09:57:00.787Z,22.72
2023-01-09T09:58:11.789Z,22.00
2023-01-09T09:59:27.032Z,21.09
2023-01-09T10:00:30.180Z,22.41
2023-01-09T10:01:48.584Z,22.26
2023-01-09T10:03:11.357Z,23.08
2023-01-09T10:04:18.507Z,23.00
2023-01-09T10:05:27.962Z,22.36
2023-01-09T10:06:41.568Z,23.92
2023-01-09T10:07:49.997Z,22.55
2023-01-09T10:09:37.258Z,24.02
2023-01-09T10:10:49.495Z,23.53
2023-01-09T10:12:18.074Z,23.77
2023-01-09T10:13:43.456Z,23.51
2023-01-09T10:14:45.556Z,23.30
2023-01-09T10:16:05.047Z,22.53
2023-01-09T10:17:20.110Z,22.65
2023-01-09T10:18:50.197Z,23.08
2023-01-09T10:20:04.451Z,22.80
2023-01-09T10:21:25.940Z,24.45
2023-01-09T10:22:30.443Z,23.97
2023-01-09T10:23:54.760Z,24.61
2023-01-09T10:25:27.046Z,25.23
2023-01-09T10:26:47.714Z,27.89
2023-01-09T10:28:31.345Z,26.44
2023-01-09T10:29:40.234Z,27.02
2023-01-09T10:31:23.346Z,23.84
2023-01-09T10:33:01.271Z,22.67
2023-01-09T10:34:39.966Z,22.78
2023-01-09T10:36:19.953Z,23.43
2023-01-09T10:37:42.977Z,22.86
2023-01-09T10:38:50.392Z,24.05
2023-01-09T10:40:05.533Z,24.24
2023-01-09T10:41:27.749Z,23.11
2023-01-09T10:42:54.663Z,23.25
2023-01-09T10:44:06.290Z,22.49
2023-01-09T10:45:32.840Z,22.12
2023-01-09T10:46:56.190Z,22.55
2023-01-09T10:48:06.042Z,22.37
2023-01-09T10:49:16.192Z,22.39
2023-01-09T10:50:29.983Z,22.76
2023-01-09T10:51:39.603Z,23.29
2023-01-09T10:52:42.972Z,23.72
2023-01-09T10:53:54.353Z,22.36
2023-01-09T10:55:06.141Z,22.26
2023-01-09T10:56:20.112Z,20.01
2023-01-09T10:57:43.373Z,20.96
2023-01-09T10:58:45.440Z,21.11
2023-01-09T10:59:47.511Z,20.19
2023-01-09T11:00:51.508Z,19.84
2023-01-09T11:01:54.834Z,20.32
2023-01-09T11:02:56.725Z,21.00
2023-01-09T11:04:01.616Z,22.71
2023-01-09T11:05:03.650Z,22.15
2023-01-09T11:06:22.032Z,20.88
2023-01-09T11:07:31.223Z,21.56
2023-01-09T11:08:45.103Z,20.11
2023-01-09T11:10:11.927Z,20.29
2023-01-09T11:11:33.351Z,20.90
2023-01-09T11:12:37.052Z,21.37
2023-01-09T11:13:43.844Z,19.59
2023-01-09T11:14:45.694Z,20.42
2023-01-09T11:16:00.937Z,19.80
2023-01-09T11:17:04.428Z,19.56
2023-01-09T11:18:24.736Z,19.64
2023-01-09T11:19:27.249Z,19.34
2023-01-09T11:20:30.521Z,19.74
2023-01-09T11:21:39.601Z,19.48
2023-01-09T11:22:47.832Z,19.60
2023-01-09T11:23:50.311Z,19.78
2023-01-09T11:25:03.042Z,19.89
2023-01-09T11:26:05.051Z,19.35
2023-01-09T11:27:13.196Z,20.08
2023-01-09T11:28:15.605Z,18.93
2023-01-09T11:29:20.644Z,18.70
2023-01-09T11:30:27.762Z,18.21
2023-01-09T11:31:29.874Z,18.52
2023-01-09T11:32:33.011Z,19.47
2023-01-09T11:33:43.203Z,19.84
2023-01-09T11:34:46.536Z,20.32
2023-01-09T11:35:57.903Z,20.18
2023-01-09T11:37:08.920Z,19.44
2023-01-09T11:38:17.786Z,20.09
2023-01-09T11:39:29.030Z,19.75
2023-01-09T11:40:38.157Z,20.38
2023-01-09T11:41:40.494Z,19.94
2023-01-09T11:43:04.258Z,19.40
2023-01-09T11:44:06.213Z,20.09
2023-01-09T11:45:15.611Z,20.43
2023-01-09T11:46:37.661Z,20.25
2023-01-09T11:47:41.173Z,18.78
2023-01-09T11:48:57.427Z,20.27
2023-01-09T11:50:29.703Z,19.15
2023-01-09T11:51:35.084Z,18.56
2023-01-09T11:52:36.978Z,17.24
2023-01-09T11:54:08.565Z,15.34
2023-01-09T11:55:19.641Z,15.21
2023-01-09T11:56:22.658Z,14.09
2023-01-09T11:57:26.217Z,15.06
2023-01-09T11:58:35.144Z,15.13
2023-01-09T11:59:37.046Z,15.08
2023-01-09T12:01:14.230Z,15.76
2023-01-09T12:02:53.353Z,15.78
2023-01-09T12:03:58.670Z,14.18
2023-01-09T12:05:09.463Z,14.82
2023-01-09T12:06:47.746Z,13.81
2023-01-09T12:07:58.873Z,14.01
2023-01-09T12:09:07.961Z,13.79
2023-01-09T12:10:12.770Z,13.29
2023-01-09T12:11:24.292Z,13.10
2023-01-09T12:12:40.139Z,12.96
2023-01-09T12:14:02.352Z,12.99
2023-01-09T12:15:33.526Z,13.26
2023-01-09T12:16:53.846Z,12.39
2023-01-09T12:18:16.008Z,13.22
2023-01-09T12:19:52.424Z,13.85
2023-01-09T12:21:11.431Z,13.06
2023-01-09T12:22:28.558Z,13.76
2023-01-09T12:23:48.862Z,13.59
2023-01-09T12:25:15.126Z,13.49
2023-01-09T12:26:24.078Z,14.15
2023-01-09T12:27:57.382Z,14.09
2023-01-09T12:29:23.583Z,14.00
2023-01-09T12:30:34.362Z,14.01
2023-01-09T12:32:04.641Z,14.51
2023-01-09T12:33:21.838Z,14.37
2023-01-09T12:34:38.733Z,15.78
2023-01-09T12:35:50.935Z,15.98
2023-01-09T12:37:20.346Z,15.61
2023-01-09T12:38:52.744Z,15.53
2023-01-09T12:40:03.992Z,20.99
2023-01-09T12:41:24.542Z,16.73
2023-01-09T12:42:38.634Z,16.31
2023-01-09T12:44:11.919Z,16.05
2023-01-09T12:45:32.485Z,16.33
2023-01-09T12:47:05.803Z,17.33
2023-01-09T12:48:47.456Z,16.41
2023-01-09T12:50:01.468Z,15.89
2023-01-09T12:51:42.219Z,17.31
2023-01-09T12:53:09.278Z,16.84
2023-01-09T12:54:19.617Z,16.00
2023-01-09T12:55:27.585Z,16.43
2023-01-09T12:56:52.996Z,15.35
2023-01-09T12:58:01.652Z,16.79
2023-01-09T12:59:32.009Z,15.80
2023-01-09T13:00:51.721Z,16.17
2023-01-09T13:02:00.205Z,17.72
2023-01-09T13:03:23.511Z,17.23
2023-01-09T13:04:38.025Z,22.74
2023-01-09T13:05:49.992Z,26.02
2023-01-09T13:07:01.277Z,35.85
2023-01-09T13:08:25.304Z,41.62
2023-01-09T13:09:46.092Z,41.21
2023-01-09T13:11:19.969Z,39.69
2023-01-09T13:12:25.562Z,30.80
2023-01-09T13:13:49.072Z,26.08
2023-01-09T13:15:04.722Z,19.51
2023-01-09T13:16:15.896Z,19.68
2023-01-09T13:17:26.413Z,18.43
2023-01-09T13:18:42.938Z,17.54
2023-01-09T13:19:46.371Z,17.15
2023-01-09T13:20:53.492Z,18.86
2023-01-09T13:21:58.685Z,18.80
2023-01-09T13:23:04.647Z,16.57
2023-01-09T13:24:27.948Z,17.07
2023-01-09T13:25:49.320Z,17.14
2023-01-09T13:27:02.836Z,16.91
2023-01-09T13:28:27.987Z,17.01
2023-01-09T13:29:37.795Z,17.77
2023-01-09T13:31:02.766Z,18.96
2023-01-09T13:32:24.399Z,19.06
2023-01-09T13:33:31.050Z,18.21
2023-01-09T13:34:36.737Z,17.80
2023-01-09T13:35:57.603Z,17.99
2023-01-09T13:37:00.466Z,17.50
2023-01-09T13:38:02.601Z,17.20
2023-01-09T13:39:06.406Z,16.41
2023-01-09T13:40:20.680Z,18.13
2023-01-09T13:41:46.234Z,17.41
2023-01-09T13:42:59.393Z,20.28
2023-01-09T13:44:05.898Z,24.44
2023-01-09T13:45:24.705Z,38.83
2023-01-09T13:46:53.173Z,25.15
2023-01-09T13:48:17.894Z,19.63
2023-01-09T13:49:53.144Z,20.83
2023-01-09T13:51:35.223Z,26.59
2023-01-09T13:52:37.356Z,19.87
2023-01-09T13:53:44.750Z,18.65
2023-01-09T13:54:55.866Z,17.57
2023-01-09T13:55:58.493Z,19.29
2023-01-09T13:57:19.454Z,19.74
2023-01-09T13:58:22.836Z,18.41
2023-01-09T13:59:28.717Z,19.84
2023-01-09T14:00:37.706Z,19.45
2023-01-09T14:01:42.939Z,19.29
2023-01-09T14:02:46.639Z,19.49
2023-01-09T14:04:15.012Z,19.88
2023-01-09T14:05:37.079Z,18.77
2023-01-09T14:06:39.465Z,17.84
2023-01-09T14:07:45.375Z,17.61
2023-01-09T14:08:50.575Z,16.92
2023-01-09T14:10:00.532Z,15.85
2023-01-09T14:11:05.274Z,17.20
2023-01-09T14:12:07.531Z,18.47
2023-01-09T14:13:20.240Z,18.30
2023-01-09T14:14:33.353Z,16.90
2023-01-09T14:15:44.829Z,18.07
2023-01-09T14:16:47.101Z,18.59
2023-01-09T14:17:57.937Z,16.86
2023-01-09T14:19:09.466Z,16.66
2023-01-09T14:20:30.754Z,16.92
2023-01-09T14:21:49.674Z,17.10
2023-01-09T14:23:17.974Z,17.05
2023-01-09T14:24:25.585Z,17.11
2023-01-09T14:25:32.004Z,18.60
2023-01-09T14:26:57.078Z,17.75
2023-01-09T14:28:03.380Z,17.38
2023-01-09T14:29:36.972Z,18.95
2023-01-09T14:30:59.133Z,18.02
2023-01-09T14:32:42.474Z,18.49
2023-01-09T14:33:47.547Z,19.53
2023-01-09T14:34:58.199Z,18.33
2023-01-09T14:36:24.449Z,19.80
2023-01-09T14:37:30.608Z,20.34